sensor_id;sensor_type;location;lat;lon;timestamp;temperature;humidity
23251;DHT22;11794;49.730;10.088;2023-02-24T00:01:55;8.20;99.90
23251;DHT22;11794;49.730;10.088;2023-02-24T00:04:35;8.10;99.90
23251;DHT22;11794;49.730;10.088;2023-02-24T00:07:02;8.10;99.90
23251;DHT22;11794;49.730;10.088;2023-02-24T00:09:29;8.00;99.90
23251;DHT22;11794;49.730;10.088;2023-02-24T00:12:01;8.00;99.90
23251;DHT22;11794;49.730;10.088;2023-02-24T00:14:32;8.10;99.90
23251;DHT22;11794;49.730;10.088;2023-02-24T00:16:58;8.20;99.90
23251;DHT22;11794;49.730;10.088;2023-02-24T00:19:26;8.10;99.90
23251;DHT22;11794;49.730;10.088;2023-02-24T00:21:53;8.10;99.90
23251;DHT22;11794;49.730;10.088;2023-02-24T00:24:20;8.10;99.90
23251;DHT22;11794;49.730;10.088;2023-02-24T00:26:49;8.00;99.90
23251;DHT22;11794;49.730;10.088;2023-02-24T00:29:18;8.00;99.90
23251;DHT22;11794;49.730;10.088;2023-02-24T00:31:44;8.00;99.90
23251;DHT22;11794;49.730;10.088;2023-02-24T00:34:11;7.90;99.90
23251;DHT22;11794;49.730;10.088;2023-02-24T00:36:37;8.00;99.90
23251;DHT22;11794;49.730;10.088;2023-02-24T00:39:05;8.00;99.90
23251;DHT22;11794;49.730;10.088;2023-02-24T00:41:36;8.00;99.90
23251;DHT22;11794;49.730;10.088;2023-02-24T00:44:04;7.90;99.90
23251;DHT22;11794;49.730;10.088;2023-02-24T00:46:35;7.90;99.90
23251;DHT22;11794;49.730;10.088;2023-02-24T00:49:02;7.90;99.90
23251;DHT22;11794;49.730;10.088;2023-02-24T00:51:33;7.80;99.90
23251;DHT22;11794;49.730;10.088;2023-02-24T00:54:00;7.80;99.90
23251;DHT22;11794;49.730;10.088;2023-02-24T00:56:27;7.80;99.90
23251;DHT22;11794;49.730;10.088;2023-02-24T00:58:53;7.80;99.90
23251;DHT22;11794;49.730;10.088;2023-02-24T01:01:21;7.80;99.90
23251;DHT22;11794;49.730;10.088;2023-02-24T01:03:48;7.90;99.90
23251;DHT22;11794;49.730;10.088;2023-02-24T01:06:17;7.90;99.90
23251;DHT22;11794;49.730;10.088;2023-02-24T01:08:48;7.90;99.90
23251;DHT22;11794;49.730;10.088;2023-02-24T01:11:15;7.80;99.90
23251;DHT22;11794;49.730;10.088;2023-02-24T01:14:03;7.90;99.90
23251;DHT22;11794;49.730;10.088;2023-02-24T01:16:29;7.90;99.90
23251;DHT22;11794;49.730;10.088;2023-02-24T01:18:55;7.90;99.90
23251;DHT22;11794;49.730;10.088;2023-02-24T01:21:20;7.90;99.90
23251;DHT22;11794;49.730;10.088;2023-02-24T01:23:50;7.80;99.90
23251;DHT22;11794;49.730;10.088;2023-02-24T01:26:16;7.80;99.90
23251;DHT22;11794;49.730;10.088;2023-02-24T01:28:43;7.80;99.90
23251;DHT22;11794;49.730;10.088;2023-02-24T01:31:10;7.80;99.90
23251;DHT22;11794;49.730;10.088;2023-02-24T01:33:36;7.80;99.90
23251;DHT22;11794;49.730;10.088;2023-02-24T01:36:11;7.90;99.90
23251;DHT22;11794;49.730;10.088;2023-02-24T01:38:38;7.90;99.90
23251;DHT22;11794;49.730;10.088;2023-02-24T01:41:11;7.90;99.90
23251;DHT22;11794;49.730;10.088;2023-02-24T01:46:25;7.90;99.90
23251;DHT22;11794;49.730;10.088;2023-02-24T01:48:54;8.00;99.90
23251;DHT22;11794;49.730;10.088;2023-02-24T01:51:21;8.00;99.90
23251;DHT22;11794;49.730;10.088;2023-02-24T01:53:47;7.90;99.90
23251;DHT22;11794;49.730;10.088;2023-02-24T01:56:14;7.90;99.90
23251;DHT22;11794;49.730;10.088;2023-02-24T01:58:40;7.90;99.90
23251;DHT22;11794;49.730;10.088;2023-02-24T02:01:07;7.80;99.90
23251;DHT22;11794;49.730;10.088;2023-02-24T02:03:36;7.90;99.90
23251;DHT22;11794;49.730;10.088;2023-02-24T02:06:08;7.80;99.90
23251;DHT22;11794;49.730;10.088;2023-02-24T02:08:38;7.80;99.90
23251;DHT22;11794;49.730;10.088;2023-02-24T02:11:07;7.80;99.90
23251;DHT22;11794;49.730;10.088;2023-02-24T02:13:34;7.80;99.90
23251;DHT22;11794;49.730;10.088;2023-02-24T02:24:39;7.70;99.90
23251;DHT22;11794;49.730;10.088;2023-02-24T02:27:42;7.60;99.90
23251;DHT22;11794;49.730;10.088;2023-02-24T02:36:09;7.60;99.90
23251;DHT22;11794;49.730;10.088;2023-02-24T02:38:50;7.60;99.90
23251;DHT22;11794;49.730;10.088;2023-02-24T02:41:26;7.70;99.90
23251;DHT22;11794;49.730;10.088;2023-02-24T02:44:13;7.70;99.90
23251;DHT22;11794;49.730;10.088;2023-02-24T02:46:55;7.60;99.90
23251;DHT22;11794;49.730;10.088;2023-02-24T02:52:09;7.60;99.90
23251;DHT22;11794;49.730;10.088;2023-02-24T02:55:02;7.60;99.90
23251;DHT22;11794;49.730;10.088;2023-02-24T02:57:32;7.60;99.90
23251;DHT22;11794;49.730;10.088;2023-02-24T03:00:09;7.60;99.90
23251;DHT22;11794;49.730;10.088;2023-02-24T03:02:45;7.60;99.90
23251;DHT22;11794;49.730;10.088;2023-02-24T03:05:15;7.60;99.90
23251;DHT22;11794;49.730;10.088;2023-02-24T03:07:49;7.60;99.90
23251;DHT22;11794;49.730;10.088;2023-02-24T03:10:25;7.60;99.90
23251;DHT22;11794;49.730;10.088;2023-02-24T03:12:54;7.60;99.90
23251;DHT22;11794;49.730;10.088;2023-02-24T03:15:22;7.60;99.90
23251;DHT22;11794;49.730;10.088;2023-02-24T03:17:54;7.50;99.90
23251;DHT22;11794;49.730;10.088;2023-02-24T03:20:22;7.50;99.90
23251;DHT22;11794;49.730;10.088;2023-02-24T03:23:08;7.40;99.90
23251;DHT22;11794;49.730;10.088;2023-02-24T03:25:42;7.40;99.90
23251;DHT22;11794;49.730;10.088;2023-02-24T03:28:17;7.30;99.90
23251;DHT22;11794;49.730;10.088;2023-02-24T03:30:55;7.20;99.90
23251;DHT22;11794;49.730;10.088;2023-02-24T03:33:28;7.20;99.90
23251;DHT22;11794;49.730;10.088;2023-02-24T03:35:56;7.10;99.90
23251;DHT22;11794;49.730;10.088;2023-02-24T03:38:29;7.10;99.90
23251;DHT22;11794;49.730;10.088;2023-02-24T03:40:56;7.00;99.90
23251;DHT22;11794;49.730;10.088;2023-02-24T03:43:28;7.00;99.90
23251;DHT22;11794;49.730;10.088;2023-02-24T03:45:56;6.90;99.90
23251;DHT22;11794;49.730;10.088;2023-02-24T03:48:24;7.00;99.90
23251;DHT22;11794;49.730;10.088;2023-02-24T03:50:51;7.00;99.90
23251;DHT22;11794;49.730;10.088;2023-02-24T04:01:51;7.10;99.90
23251;DHT22;11794;49.730;10.088;2023-02-24T04:04:45;7.10;99.90
23251;DHT22;11794;49.730;10.088;2023-02-24T04:07:36;7.10;99.90
23251;DHT22;11794;49.730;10.088;2023-02-24T04:10:09;7.10;99.90
23251;DHT22;11794;49.730;10.088;2023-02-24T04:12:58;7.10;99.90
23251;DHT22;11794;49.730;10.088;2023-02-24T04:15:40;7.10;99.90
23251;DHT22;11794;49.730;10.088;2023-02-24T04:18:24;7.10;99.90
23251;DHT22;11794;49.730;10.088;2023-02-24T04:20:52;7.10;99.90
23251;DHT22;11794;49.730;10.088;2023-02-24T04:23:22;7.10;99.90
23251;DHT22;11794;49.730;10.088;2023-02-24T04:25:52;7.20;99.90
23251;DHT22;11794;49.730;10.088;2023-02-24T04:28:20;7.10;99.90
23251;DHT22;11794;49.730;10.088;2023-02-24T04:30:50;7.10;99.90
23251;DHT22;11794;49.730;10.088;2023-02-24T04:33:16;7.10;99.90
23251;DHT22;11794;49.730;10.088;2023-02-24T04:35:47;7.10;99.90
23251;DHT22;11794;49.730;10.088;2023-02-24T04:38:15;7.20;99.90
23251;DHT22;11794;49.730;10.088;2023-02-24T04:40:40;7.10;99.90
23251;DHT22;11794;49.730;10.088;2023-02-24T04:43:07;7.10;99.90
23251;DHT22;11794;49.730;10.088;2023-02-24T04:45:33;7.20;99.90
23251;DHT22;11794;49.730;10.088;2023-02-24T04:48:00;7.10;99.90
23251;DHT22;11794;49.730;10.088;2023-02-24T04:50:29;7.10;99.90
23251;DHT22;11794;49.730;10.088;2023-02-24T04:52:57;7.20;99.90
23251;DHT22;11794;49.730;10.088;2023-02-24T04:55:26;7.20;99.90
23251;DHT22;11794;49.730;10.088;2023-02-24T04:57:58;7.30;99.90
23251;DHT22;11794;49.730;10.088;2023-02-24T05:00:24;7.20;99.90
23251;DHT22;11794;49.730;10.088;2023-02-24T05:02:58;7.20;99.90
23251;DHT22;11794;49.730;10.088;2023-02-24T05:05:26;7.10;99.90
23251;DHT22;11794;49.730;10.088;2023-02-24T05:07:56;7.10;99.90
23251;DHT22;11794;49.730;10.088;2023-02-24T05:10:27;7.10;99.90
23251;DHT22;11794;49.730;10.088;2023-02-24T05:12:54;7.10;99.90
23251;DHT22;11794;49.730;10.088;2023-02-24T05:15:23;7.00;99.90
23251;DHT22;11794;49.730;10.088;2023-02-24T05:17:56;7.00;99.90
23251;DHT22;11794;49.730;10.088;2023-02-24T05:20:22;7.00;99.90
23251;DHT22;11794;49.730;10.088;2023-02-24T05:23:06;6.90;99.90
23251;DHT22;11794;49.730;10.088;2023-02-24T05:25:34;6.90;99.90
23251;DHT22;11794;49.730;10.088;2023-02-24T05:28:04;6.90;99.90
23251;DHT22;11794;49.730;10.088;2023-02-24T05:30:30;6.90;99.90
23251;DHT22;11794;49.730;10.088;2023-02-24T05:32:56;6.90;99.90
23251;DHT22;11794;49.730;10.088;2023-02-24T05:35:23;6.90;99.90
23251;DHT22;11794;49.730;10.088;2023-02-24T05:37:49;6.90;99.90
23251;DHT22;11794;49.730;10.088;2023-02-24T05:40:16;6.90;99.90
23251;DHT22;11794;49.730;10.088;2023-02-24T05:42:44;6.90;99.90
23251;DHT22;11794;49.730;10.088;2023-02-24T05:45:10;6.90;99.90
23251;DHT22;11794;49.730;10.088;2023-02-24T05:47:37;7.00;99.90
23251;DHT22;11794;49.730;10.088;2023-02-24T05:50:05;7.00;99.90
23251;DHT22;11794;49.730;10.088;2023-02-24T05:52:30;7.00;99.90
23251;DHT22;11794;49.730;10.088;2023-02-24T05:54:56;7.00;99.90
23251;DHT22;11794;49.730;10.088;2023-02-24T05:57:21;7.00;99.90
23251;DHT22;11794;49.730;10.088;2023-02-24T05:59:51;7.00;99.90
23251;DHT22;11794;49.730;10.088;2023-02-24T06:02:20;7.00;99.90
23251;DHT22;11794;49.730;10.088;2023-02-24T06:05:02;7.10;99.90
23251;DHT22;11794;49.730;10.088;2023-02-24T06:07:30;7.10;99.90
23251;DHT22;11794;49.730;10.088;2023-02-24T06:09:59;7.10;99.90
23251;DHT22;11794;49.730;10.088;2023-02-24T06:12:30;7.10;99.90
23251;DHT22;11794;49.730;10.088;2023-02-24T06:14:56;7.00;99.90
23251;DHT22;11794;49.730;10.088;2023-02-24T06:17:27;7.00;99.90
23251;DHT22;11794;49.730;10.088;2023-02-24T06:19:53;6.90;99.90
23251;DHT22;11794;49.730;10.088;2023-02-24T06:22:21;6.90;99.90
23251;DHT22;11794;49.730;10.088;2023-02-24T06:24:47;6.90;99.90
23251;DHT22;11794;49.730;10.088;2023-02-24T06:27:15;7.00;99.90
23251;DHT22;11794;49.730;10.088;2023-02-24T06:29:50;7.00;99.90
23251;DHT22;11794;49.730;10.088;2023-02-24T06:32:21;7.00;99.90
23251;DHT22;11794;49.730;10.088;2023-02-24T06:34:48;7.00;99.90
23251;DHT22;11794;49.730;10.088;2023-02-24T06:37:14;6.90;99.90
23251;DHT22;11794;49.730;10.088;2023-02-24T06:39:40;6.90;99.90
23251;DHT22;11794;49.730;10.088;2023-02-24T06:42:06;6.90;99.90
23251;DHT22;11794;49.730;10.088;2023-02-24T06:44:34;6.90;99.90
23251;DHT22;11794;49.730;10.088;2023-02-24T06:47:00;6.90;99.90
23251;DHT22;11794;49.730;10.088;2023-02-24T06:49:27;6.80;99.90
23251;DHT22;11794;49.730;10.088;2023-02-24T06:51:53;6.80;99.90
23251;DHT22;11794;49.730;10.088;2023-02-24T06:54:23;6.90;99.90
23251;DHT22;11794;49.730;10.088;2023-02-24T06:56:55;6.90;99.90
23251;DHT22;11794;49.730;10.088;2023-02-24T06:59:22;6.90;99.90
23251;DHT22;11794;49.730;10.088;2023-02-24T07:01:56;6.90;99.90
23251;DHT22;11794;49.730;10.088;2023-02-24T07:04:22;6.90;99.90
23251;DHT22;11794;49.730;10.088;2023-02-24T07:07:07;6.80;99.90
23251;DHT22;11794;49.730;10.088;2023-02-24T07:09:32;6.80;99.90
23251;DHT22;11794;49.730;10.088;2023-02-24T07:11:59;6.80;99.90
23251;DHT22;11794;49.730;10.088;2023-02-24T07:14:27;6.80;99.90
23251;DHT22;11794;49.730;10.088;2023-02-24T07:16:56;6.90;99.90
23251;DHT22;11794;49.730;10.088;2023-02-24T07:19:29;6.90;99.90
23251;DHT22;11794;49.730;10.088;2023-02-24T07:22:01;6.90;99.90
23251;DHT22;11794;49.730;10.088;2023-02-24T07:24:30;6.90;99.90
23251;DHT22;11794;49.730;10.088;2023-02-24T07:27:20;7.00;99.90
23251;DHT22;11794;49.730;10.088;2023-02-24T07:29:47;6.90;99.90
23251;DHT22;11794;49.730;10.088;2023-02-24T07:32:14;6.90;99.90
23251;DHT22;11794;49.730;10.088;2023-02-24T07:34:40;7.00;99.90
23251;DHT22;11794;49.730;10.088;2023-02-24T07:37:06;7.00;99.90
23251;DHT22;11794;49.730;10.088;2023-02-24T07:39:33;7.00;99.90
23251;DHT22;11794;49.730;10.088;2023-02-24T07:41:59;7.00;99.90
23251;DHT22;11794;49.730;10.088;2023-02-24T07:44:25;7.00;99.90
23251;DHT22;11794;49.730;10.088;2023-02-24T07:46:50;7.00;99.90
23251;DHT22;11794;49.730;10.088;2023-02-24T07:49:19;7.10;99.90
23251;DHT22;11794;49.730;10.088;2023-02-24T07:51:47;7.20;99.90
23251;DHT22;11794;49.730;10.088;2023-02-24T07:54:18;7.20;99.90
23251;DHT22;11794;49.730;10.088;2023-02-24T07:56:45;7.20;99.90
23251;DHT22;11794;49.730;10.088;2023-02-24T07:59:13;7.30;99.90
23251;DHT22;11794;49.730;10.088;2023-02-24T08:01:44;7.30;99.90
23251;DHT22;11794;49.730;10.088;2023-02-24T08:04:25;7.30;99.90
23251;DHT22;11794;49.730;10.088;2023-02-24T08:06:51;7.30;99.90
23251;DHT22;11794;49.730;10.088;2023-02-24T08:09:22;7.30;99.90
23251;DHT22;11794;49.730;10.088;2023-02-24T08:12:08;7.30;99.90
23251;DHT22;11794;49.730;10.088;2023-02-24T08:14:33;7.40;99.90
23251;DHT22;11794;49.730;10.088;2023-02-24T08:17:00;7.50;99.90
23251;DHT22;11794;49.730;10.088;2023-02-24T08:19:31;7.60;99.90
23251;DHT22;11794;49.730;10.088;2023-02-24T08:22:05;7.70;99.90
23251;DHT22;11794;49.730;10.088;2023-02-24T08:25:02;7.70;99.90
23251;DHT22;11794;49.730;10.088;2023-02-24T08:27:32;7.80;99.90
23251;DHT22;11794;49.730;10.088;2023-02-24T08:30:03;7.90;99.90
23251;DHT22;11794;49.730;10.088;2023-02-24T08:32:36;8.00;99.90
23251;DHT22;11794;49.730;10.088;2023-02-24T08:35:14;8.10;99.90
23251;DHT22;11794;49.730;10.088;2023-02-24T08:37:52;8.10;99.90
23251;DHT22;11794;49.730;10.088;2023-02-24T08:40:25;8.20;99.90
23251;DHT22;11794;49.730;10.088;2023-02-24T08:42:55;8.30;99.90
23251;DHT22;11794;49.730;10.088;2023-02-24T08:45:26;8.30;99.90
23251;DHT22;11794;49.730;10.088;2023-02-24T08:47:57;8.20;99.90
23251;DHT22;11794;49.730;10.088;2023-02-24T08:50:26;8.20;99.90
23251;DHT22;11794;49.730;10.088;2023-02-24T08:52:56;8.30;99.90
23251;DHT22;11794;49.730;10.088;2023-02-24T08:55:23;8.30;99.90
23251;DHT22;11794;49.730;10.088;2023-02-24T08:57:55;8.30;99.90
23251;DHT22;11794;49.730;10.088;2023-02-24T09:00:26;8.40;99.90
23251;DHT22;11794;49.730;10.088;2023-02-24T09:03:12;8.40;99.90
23251;DHT22;11794;49.730;10.088;2023-02-24T09:08:36;8.50;99.90
23251;DHT22;11794;49.730;10.088;2023-02-24T09:11:09;8.60;99.90
23251;DHT22;11794;49.730;10.088;2023-02-24T09:13:43;8.60;99.90
23251;DHT22;11794;49.730;10.088;2023-02-24T09:16:17;8.60;99.90
23251;DHT22;11794;49.730;10.088;2023-02-24T09:18:43;8.70;99.90
23251;DHT22;11794;49.730;10.088;2023-02-24T09:21:10;8.70;99.90
23251;DHT22;11794;49.730;10.088;2023-02-24T09:23:55;8.60;99.90
23251;DHT22;11794;49.730;10.088;2023-02-24T09:26:21;8.60;99.90
23251;DHT22;11794;49.730;10.088;2023-02-24T09:28:46;8.60;99.90
23251;DHT22;11794;49.730;10.088;2023-02-24T09:31:20;8.70;99.90
23251;DHT22;11794;49.730;10.088;2023-02-24T09:33:49;8.70;99.90
23251;DHT22;11794;49.730;10.088;2023-02-24T09:36:19;8.80;99.90
23251;DHT22;11794;49.730;10.088;2023-02-24T09:38:53;8.80;99.90
23251;DHT22;11794;49.730;10.088;2023-02-24T09:41:44;8.80;99.90
23251;DHT22;11794;49.730;10.088;2023-02-24T09:44:50;8.70;99.90
23251;DHT22;11794;49.730;10.088;2023-02-24T09:47:49;8.90;99.90
23251;DHT22;11794;49.730;10.088;2023-02-24T09:52:49;9.00;99.90
23251;DHT22;11794;49.730;10.088;2023-02-24T10:04:04;9.20;99.90
23251;DHT22;11794;49.730;10.088;2023-02-24T10:06:47;9.30;99.90
23251;DHT22;11794;49.730;10.088;2023-02-24T10:09:23;9.30;99.90
23251;DHT22;11794;49.730;10.088;2023-02-24T10:11:54;9.40;99.90
23251;DHT22;11794;49.730;10.088;2023-02-24T10:17:21;9.50;99.90
23251;DHT22;11794;49.730;10.088;2023-02-24T10:19:48;9.60;99.90
23251;DHT22;11794;49.730;10.088;2023-02-24T10:22:46;9.80;99.90
23251;DHT22;11794;49.730;10.088;2023-02-24T10:25:55;9.80;99.90
23251;DHT22;11794;49.730;10.088;2023-02-24T10:28:52;9.90;99.90
23251;DHT22;11794;49.730;10.088;2023-02-24T10:31:33;9.90;99.90
23251;DHT22;11794;49.730;10.088;2023-02-24T10:34:09;10.10;99.90
23251;DHT22;11794;49.730;10.088;2023-02-24T10:36:35;10.30;99.90
23251;DHT22;11794;49.730;10.088;2023-02-24T10:39:20;10.20;99.90
23251;DHT22;11794;49.730;10.088;2023-02-24T10:41:52;10.00;99.90
23251;DHT22;11794;49.730;10.088;2023-02-24T10:44:43;9.90;99.90
23251;DHT22;11794;49.730;10.088;2023-02-24T10:47:24;9.80;99.90
23251;DHT22;11794;49.730;10.088;2023-02-24T10:49:59;9.60;99.90
23251;DHT22;11794;49.730;10.088;2023-02-24T10:52:36;9.70;99.90
23251;DHT22;11794;49.730;10.088;2023-02-24T10:57:54;9.60;99.90
23251;DHT22;11794;49.730;10.088;2023-02-24T11:00:40;9.50;99.90
23251;DHT22;11794;49.730;10.088;2023-02-24T11:03:25;9.50;99.90
23251;DHT22;11794;49.730;10.088;2023-02-24T11:06:01;9.50;99.90
23251;DHT22;11794;49.730;10.088;2023-02-24T11:08:27;9.50;99.90
23251;DHT22;11794;49.730;10.088;2023-02-24T11:11:21;9.70;99.90
23251;DHT22;11794;49.730;10.088;2023-02-24T11:13:55;9.90;99.90
23251;DHT22;11794;49.730;10.088;2023-02-24T11:16:48;10.30;99.90
23251;DHT22;11794;49.730;10.088;2023-02-24T11:19:57;10.60;99.90
23251;DHT22;11794;49.730;10.088;2023-02-24T11:22:36;10.70;99.90
23251;DHT22;11794;49.730;10.088;2023-02-24T11:25:15;10.70;99.90
23251;DHT22;11794;49.730;10.088;2023-02-24T11:27:44;10.80;99.90
23251;DHT22;11794;49.730;10.088;2023-02-24T11:33:02;11.80;99.90
23251;DHT22;11794;49.730;10.088;2023-02-24T11:35:58;11.90;99.90
23251;DHT22;11794;49.730;10.088;2023-02-24T11:38:50;11.30;99.90
23251;DHT22;11794;49.730;10.088;2023-02-24T11:41:41;10.80;99.90
23251;DHT22;11794;49.730;10.088;2023-02-24T11:44:24;10.70;99.90
23251;DHT22;11794;49.730;10.088;2023-02-24T11:46:55;10.70;99.90
23251;DHT22;11794;49.730;10.088;2023-02-24T11:49:32;11.00;99.90
23251;DHT22;11794;49.730;10.088;2023-02-24T11:52:03;11.00;99.90
23251;DHT22;11794;49.730;10.088;2023-02-24T11:54:36;11.00;99.90
23251;DHT22;11794;49.730;10.088;2023-02-24T11:57:09;11.10;99.90
23251;DHT22;11794;49.730;10.088;2023-02-24T11:59:42;11.40;99.90
23251;DHT22;11794;49.730;10.088;2023-02-24T12:02:36;11.20;99.90
23251;DHT22;11794;49.730;10.088;2023-02-24T12:07:43;10.80;99.90
23251;DHT22;11794;49.730;10.088;2023-02-24T12:10:20;10.90;99.90
23251;DHT22;11794;49.730;10.088;2023-02-24T12:15:37;10.60;99.90
23251;DHT22;11794;49.730;10.088;2023-02-24T12:42:37;9.80;99.90
23251;DHT22;11794;49.730;10.088;2023-02-24T12:48:05;9.90;99.90
23251;DHT22;11794;49.730;10.088;2023-02-24T12:50:50;9.90;99.90
23251;DHT22;11794;49.730;10.088;2023-02-24T12:53:22;9.90;99.90
23251;DHT22;11794;49.730;10.088;2023-02-24T12:58:33;10.60;99.90
23251;DHT22;11794;49.730;10.088;2023-02-24T13:01:27;10.60;99.90
23251;DHT22;11794;49.730;10.088;2023-02-24T13:06:51;10.40;99.90
23251;DHT22;11794;49.730;10.088;2023-02-24T13:09:37;10.00;99.90
23251;DHT22;11794;49.730;10.088;2023-02-24T13:14:52;9.80;99.90
23251;DHT22;11794;49.730;10.088;2023-02-24T13:17:23;9.90;99.90
23251;DHT22;11794;49.730;10.088;2023-02-24T13:19:50;10.20;99.90
23251;DHT22;11794;49.730;10.088;2023-02-24T13:22:26;10.30;99.90
23251;DHT22;11794;49.730;10.088;2023-02-24T13:25:19;10.50;99.90
23251;DHT22;11794;49.730;10.088;2023-02-24T13:27:58;11.10;99.90
23251;DHT22;11794;49.730;10.088;2023-02-24T13:30:44;11.40;99.90
23251;DHT22;11794;49.730;10.088;2023-02-24T13:35:42;10.90;99.90
23251;DHT22;11794;49.730;10.088;2023-02-24T13:40:53;11.70;99.90
23251;DHT22;11794;49.730;10.088;2023-02-24T13:43:29;12.80;99.90
23251;DHT22;11794;49.730;10.088;2023-02-24T13:46:00;13.10;99.90
23251;DHT22;11794;49.730;10.088;2023-02-24T13:48:59;12.80;99.90
23251;DHT22;11794;49.730;10.088;2023-02-24T13:52:01;13.50;99.90
23251;DHT22;11794;49.730;10.088;2023-02-24T13:54:53;13.10;99.90
23251;DHT22;11794;49.730;10.088;2023-02-24T13:57:38;12.60;99.90
23251;DHT22;11794;49.730;10.088;2023-02-24T14:03:10;11.40;99.90
23251;DHT22;11794;49.730;10.088;2023-02-24T14:05:39;11.00;99.90
23251;DHT22;11794;49.730;10.088;2023-02-24T14:08:05;10.60;99.90
23251;DHT22;11794;49.730;10.088;2023-02-24T14:10:32;10.40;99.90
23251;DHT22;11794;49.730;10.088;2023-02-24T14:13:03;10.20;99.90
23251;DHT22;11794;49.730;10.088;2023-02-24T14:15:31;10.00;99.90
23251;DHT22;11794;49.730;10.088;2023-02-24T14:18:02;10.10;99.90
23251;DHT22;11794;49.730;10.088;2023-02-24T14:20:34;10.40;99.90
23251;DHT22;11794;49.730;10.088;2023-02-24T14:23:19;10.70;99.90
23251;DHT22;11794;49.730;10.088;2023-02-24T14:25:46;10.70;99.90
23251;DHT22;11794;49.730;10.088;2023-02-24T14:28:20;10.60;99.90
23251;DHT22;11794;49.730;10.088;2023-02-24T14:31:05;10.50;99.90
23251;DHT22;11794;49.730;10.088;2023-02-24T14:33:37;10.20;99.90
23251;DHT22;11794;49.730;10.088;2023-02-24T14:36:05;10.00;99.90
23251;DHT22;11794;49.730;10.088;2023-02-24T14:38:39;9.90;99.90
23251;DHT22;11794;49.730;10.088;2023-02-24T14:41:13;9.70;99.90
23251;DHT22;11794;49.730;10.088;2023-02-24T14:43:41;9.80;99.90
23251;DHT22;11794;49.730;10.088;2023-02-24T14:46:08;9.70;99.90
23251;DHT22;11794;49.730;10.088;2023-02-24T14:48:34;9.60;99.90
23251;DHT22;11794;49.730;10.088;2023-02-24T14:51:09;9.60;99.90
23251;DHT22;11794;49.730;10.088;2023-02-24T14:53:47;9.60;99.90
23251;DHT22;11794;49.730;10.088;2023-02-24T14:56:14;9.50;99.90
23251;DHT22;11794;49.730;10.088;2023-02-24T14:58:47;9.50;99.90
23251;DHT22;11794;49.730;10.088;2023-02-24T15:01:32;9.50;99.90
23251;DHT22;11794;49.730;10.088;2023-02-24T15:04:08;9.50;99.90
23251;DHT22;11794;49.730;10.088;2023-02-24T15:06:35;9.40;99.90
23251;DHT22;11794;49.730;10.088;2023-02-24T15:09:15;9.40;99.90
23251;DHT22;11794;49.730;10.088;2023-02-24T15:11:43;9.50;99.90
23251;DHT22;11794;49.730;10.088;2023-02-24T15:14:28;9.50;99.90
23251;DHT22;11794;49.730;10.088;2023-02-24T15:17:00;9.40;99.90
23251;DHT22;11794;49.730;10.088;2023-02-24T15:19:35;9.40;99.90
23251;DHT22;11794;49.730;10.088;2023-02-24T15:22:02;9.40;99.90
23251;DHT22;11794;49.730;10.088;2023-02-24T15:24:33;9.30;99.90
23251;DHT22;11794;49.730;10.088;2023-02-24T15:27:20;9.10;99.90
23251;DHT22;11794;49.730;10.088;2023-02-24T15:30:03;9.00;99.90
23251;DHT22;11794;49.730;10.088;2023-02-24T15:32:33;9.00;99.90
23251;DHT22;11794;49.730;10.088;2023-02-24T15:34:58;8.90;99.90
23251;DHT22;11794;49.730;10.088;2023-02-24T15:37:27;8.80;99.90
23251;DHT22;11794;49.730;10.088;2023-02-24T15:40:06;8.70;99.90
23251;DHT22;11794;49.730;10.088;2023-02-24T15:42:36;8.70;99.90
23251;DHT22;11794;49.730;10.088;2023-02-24T15:45:22;8.70;99.90
23251;DHT22;11794;49.730;10.088;2023-02-24T15:47:51;8.60;99.90
23251;DHT22;11794;49.730;10.088;2023-02-24T15:50:18;8.60;99.90
23251;DHT22;11794;49.730;10.088;2023-02-24T15:52:44;8.50;99.90
23251;DHT22;11794;49.730;10.088;2023-02-24T15:55:10;8.50;99.90
23251;DHT22;11794;49.730;10.088;2023-02-24T15:57:39;8.50;99.90
23251;DHT22;11794;49.730;10.088;2023-02-24T16:00:05;8.50;99.90
23251;DHT22;11794;49.730;10.088;2023-02-24T16:02:38;8.40;99.90
23251;DHT22;11794;49.730;10.088;2023-02-24T16:05:03;8.40;99.90
23251;DHT22;11794;49.730;10.088;2023-02-24T16:07:35;8.30;99.90
23251;DHT22;11794;49.730;10.088;2023-02-24T16:10:01;8.30;99.90
23251;DHT22;11794;49.730;10.088;2023-02-24T16:12:33;8.20;99.90
23251;DHT22;11794;49.730;10.088;2023-02-24T16:15:00;8.20;99.90
23251;DHT22;11794;49.730;10.088;2023-02-24T16:17:35;8.20;99.90
23251;DHT22;11794;49.730;10.088;2023-02-24T16:20:05;8.10;99.90
23251;DHT22;11794;49.730;10.088;2023-02-24T16:22:34;8.10;99.90
23251;DHT22;11794;49.730;10.088;2023-02-24T16:25:00;8.00;99.90
23251;DHT22;11794;49.730;10.088;2023-02-24T16:27:26;8.00;99.90
23251;DHT22;11794;49.730;10.088;2023-02-24T16:29:54;8.00;99.90
23251;DHT22;11794;49.730;10.088;2023-02-24T16:32:19;8.00;99.90
23251;DHT22;11794;49.730;10.088;2023-02-24T16:34:50;7.90;99.90
23251;DHT22;11794;49.730;10.088;2023-02-24T16:37:18;7.90;99.90
23251;DHT22;11794;49.730;10.088;2023-02-24T16:39:44;7.90;99.90
23251;DHT22;11794;49.730;10.088;2023-02-24T16:42:11;7.80;99.90
23251;DHT22;11794;49.730;10.088;2023-02-24T16:44:36;7.70;99.90
23251;DHT22;11794;49.730;10.088;2023-02-24T16:47:03;7.70;99.90
23251;DHT22;11794;49.730;10.088;2023-02-24T16:49:31;7.60;99.90
23251;DHT22;11794;49.730;10.088;2023-02-24T16:51:57;7.70;99.90
23251;DHT22;11794;49.730;10.088;2023-02-24T16:54:22;7.70;99.90
23251;DHT22;11794;49.730;10.088;2023-02-24T16:56:54;7.60;99.90
23251;DHT22;11794;49.730;10.088;2023-02-24T16:59:19;7.50;99.90
23251;DHT22;11794;49.730;10.088;2023-02-24T17:01:45;7.60;99.90
23251;DHT22;11794;49.730;10.088;2023-02-24T17:04:11;7.50;99.90
23251;DHT22;11794;49.730;10.088;2023-02-24T17:06:38;7.50;99.90
23251;DHT22;11794;49.730;10.088;2023-02-24T17:09:04;7.50;99.90
23251;DHT22;11794;49.730;10.088;2023-02-24T17:11:29;7.40;99.90
23251;DHT22;11794;49.730;10.088;2023-02-24T17:13:55;7.40;99.90
23251;DHT22;11794;49.730;10.088;2023-02-24T17:16:21;7.40;99.90
23251;DHT22;11794;49.730;10.088;2023-02-24T17:18:46;7.40;99.90
23251;DHT22;11794;49.730;10.088;2023-02-24T17:21:13;7.40;99.90
23251;DHT22;11794;49.730;10.088;2023-02-24T17:23:39;7.30;99.90
23251;DHT22;11794;49.730;10.088;2023-02-24T17:26:06;7.30;99.90
23251;DHT22;11794;49.730;10.088;2023-02-24T17:28:34;7.30;99.90
23251;DHT22;11794;49.730;10.088;2023-02-24T17:30:59;7.30;99.90
23251;DHT22;11794;49.730;10.088;2023-02-24T17:33:25;7.30;99.90
23251;DHT22;11794;49.730;10.088;2023-02-24T17:35:50;7.20;99.90
23251;DHT22;11794;49.730;10.088;2023-02-24T17:38:18;7.10;99.90
23251;DHT22;11794;49.730;10.088;2023-02-24T17:40:45;7.00;99.90